Time;durP1;ratioP1;P1;durP2;ratioP2;P2;SDS_P1;SDS_P2;PMS_P1;PMS_P2;Temp;Humidity;BMP_temperature;BMP_pressure;BME280_temperature;BME280_humidity;BME280_pressure;Samples;Min_cycle;Max_cycle;Signal;HPM_P1;HPM_P2
2022/12/15 00:40:09;;;;;;;;;;;;;;;;;;7360988;19;20477;-81
2022/12/15 00:42:34;;;;;;;67.50;34.28;;;;;;;;;;7368681;19;20336;-82
2022/12/15 00:45:00;;;;;;;47.92;29.73;;;;;;;;;;7369386;19;20247;-80
2022/12/15 00:47:25;;;;;;;51.33;29.60;;;;;;;;;;7361765;19;20570;-80
2022/12/15 01:22:41;;;;;;;74.93;40.85;;;;;;;;;;7364500;19;20355;-80
2022/12/15 01:25:07;;;;;;;66.93;39.33;;;;;;;;;;7360496;19;20399;-77
2022/12/15 01:27:32;;;;;;;65.93;38.63;;;;;;;;;;7366029;19;20049;-77
2022/12/15 01:29:58;;;;;;;72.30;39.83;;;;;;;;;;7368912;19;20011;-77
2022/12/15 01:32:23;;;;;;;65.65;36.45;;;;;;;;;;7364723;19;20003;-79
2022/12/15 01:34:48;;;;;;;59.95;34.95;;;;;;;;;;7366835;19;20055;-82
2022/12/15 01:37:13;;;;;;;56.25;32.08;;;;;;;;;;7363829;19;20014;-77
2022/12/15 01:42:22;;;;;;;54.47;30.92;;;;;;;;;;7365629;19;20035;-77
2022/12/15 01:44:51;;;;;;;54.53;32.65;;;;;;;;;;7367156;19;19999;-82
2022/12/15 01:47:16;;;;;;;52.15;30.20;;;;;;;;;;7359644;19;20032;-80
2022/12/15 01:49:42;;;;;;;52.15;30.00;;;;;;;;;;7365277;19;20023;-78
2022/12/15 01:52:11;;;;;;;51.03;29.10;;;;;;;;;;7367640;19;20010;-80
2022/12/15 01:54:41;;;;;;;46.00;28.45;;;;;;;;;;7354287;19;20492;-78
2022/12/15 01:57:10;;;;;;;53.28;30.98;;;;;;;;;;7356606;19;20352;-78
2022/12/15 01:59:37;;;;;;;50.90;30.13;;;;;;;;;;7367815;19;19995;-78
2022/12/15 02:02:03;;;;;;;47.72;29.63;;;;;;;;;;7355498;19;20119;-81
2022/12/15 02:04:29;;;;;;;47.15;29.23;;;;;;;;;;7356781;19;20076;-82
2022/12/15 02:06:54;;;;;;;47.88;29.92;;;;;;;;;;7364716;19;20003;-79
2022/12/15 02:09:21;;;;;;;48.00;30.40;;;;;;;;;;7353752;19;20754;-81
2022/12/15 02:11:52;;;;;;;51.25;30.88;;;;;;;;;;7371759;19;20018;-80
2022/12/15 02:14:43;;;;;;;48.15;29.70;;;;;;;;;;7375798;19;20006;-79
2022/12/15 02:17:12;;;;;;;46.38;28.63;;;;;;;;;;7371904;19;20141;-80
2022/12/15 02:19:43;;;;;;;50.38;28.73;;;;;;;;;;7362093;19;19999;-78
2022/12/15 02:22:21;;;;;;;48.90;28.85;;;;;;;;;;7373420;19;20082;-78
2022/12/15 02:24:55;;;;;;;51.13;30.85;;;;;;;;;;7361048;19;20066;-79
2022/12/15 02:27:39;;;;;;;53.53;29.58;;;;;;;;;;7371215;19;20019;-80
2022/12/15 02:30:04;;;;;;;;;;;;;;;;;;7375004;19;20021;-83
2022/12/15 02:32:49;;;;;;;47.63;28.23;;;;;;;;;;7364290;19;19933;-82
2022/12/15 02:35:19;;;;;;;49.22;29.10;;;;;;;;;;7366392;19;20259;-81
2022/12/15 02:37:45;;;;;;;48.65;28.58;;;;;;;;;;7370651;19;19998;-82
2022/12/15 02:40:10;;;;;;;46.30;30.25;;;;;;;;;;7307681;19;20022;-85
2022/12/15 02:42:41;;;;;;;49.38;30.42;;;;;;;;;;7257166;19;20596;-82
2022/12/15 02:45:18;;;;;;;50.95;31.17;;;;;;;;;;7271108;19;20082;-81
2022/12/15 02:47:48;;;;;;;49.47;30.60;;;;;;;;;;7262440;19;20021;-84
2022/12/15 02:50:19;;;;;;;52.17;30.40;;;;;;;;;;7267170;19;20150;-86
2022/12/15 02:52:59;;;;;;;56.38;33.67;;;;;;;;;;7271939;19;20097;-86
2022/12/15 02:55:27;;;;;;;55.47;31.70;;;;;;;;;;7265158;19;20046;-84
2022/12/15 02:58:00;;;;;;;51.97;31.20;;;;;;;;;;7275715;19;20898;-81
2022/12/15 03:00:26;;;;;;;46.47;28.75;;;;;;;;;;7267485;19;20641;-84
2022/12/15 03:02:52;;;;;;;47.47;29.52;;;;;;;;;;7271920;19;20022;-83
2022/12/15 03:05:19;;;;;;;45.25;28.08;;;;;;;;;;7267478;19;19999;-82
2022/12/15 03:07:44;;;;;;;47.50;30.52;;;;;;;;;;7261699;19;20035;-83
2022/12/15 03:10:11;;;;;;;46.78;29.13;;;;;;;;;;7260003;19;19999;-83
2022/12/15 03:12:36;;;;;;;44.63;30.20;;;;;;;;;;7266502;19;20014;-83
2022/12/15 03:15:02;;;;;;;48.03;29.52;;;;;;;;;;7272372;19;20033;-84
2022/12/15 03:17:27;;;;;;;49.03;30.63;;;;;;;;;;7266467;19;20768;-79
2022/12/15 03:19:52;;;;;;;51.03;31.55;;;;;;;;;;7266827;19;20003;-82
2022/12/15 03:22:17;;;;;;;51.97;29.85;;;;;;;;;;7265728;19;20006;-82
2022/12/15 03:24:42;;;;;;;50.70;31.00;;;;;;;;;;7263638;19;20635;-80
2022/12/15 03:27:08;;;;;;;46.97;28.90;;;;;;;;;;7273627;19;20101;-83
2022/12/15 03:29:33;;;;;;;49.03;28.73;;;;;;;;;;7268068;19;20009;-83
2022/12/15 03:31:58;;;;;;;45.38;28.10;;;;;;;;;;7266372;19;20011;-82
2022/12/15 03:34:23;;;;;;;44.53;27.40;;;;;;;;;;7251587;19;20451;-83
2022/12/15 03:36:48;;;;;;;46.22;29.27;;;;;;;;;;7254442;19;20014;-80
2022/12/15 03:39:15;;;;;;;47.90;28.40;;;;;;;;;;7264895;19;20010;-78
2022/12/15 03:41:40;;;;;;;43.78;26.85;;;;;;;;;;7366150;19;20006;-81
2022/12/15 03:44:05;;;;;;;51.75;29.67;;;;;;;;;;7363278;19;20033;-84
2022/12/15 03:46:30;;;;;;;47.45;28.55;;;;;;;;;;7363205;19;20027;-82
2022/12/15 03:48:56;;;;;;;48.42;27.98;;;;;;;;;;7366250;19;20025;-80
2022/12/15 03:51:21;;;;;;;47.47;28.95;;;;;;;;;;7368374;19;20011;-82
2022/12/15 03:53:48;;;;;;;45.35;28.67;;;;;;;;;;7362339;19;20079;-81
2022/12/15 03:56:13;;;;;;;42.55;26.15;;;;;;;;;;7356597;19;20428;-81
2022/12/15 03:58:38;;;;;;;42.83;26.02;;;;;;;;;;7366738;19;20006;-84
2022/12/15 04:01:21;;;;;;;45.97;25.48;;;;;;;;;;7365522;19;20018;-84
2022/12/15 04:03:47;;;;;;;40.70;25.80;;;;;;;;;;7369212;19;19991;-80
2022/12/15 04:06:12;;;;;;;40.00;26.35;;;;;;;;;;7368624;19;20017;-80
2022/12/15 04:08:37;;;;;;;44.83;27.60;;;;;;;;;;7365649;19;19999;-82
2022/12/15 04:11:02;;;;;;;46.35;27.17;;;;;;;;;;7356783;19;20043;-83
2022/12/15 04:13:28;;;;;;;41.83;26.90;;;;;;;;;;7371330;19;20028;-82
2022/12/15 04:15:53;;;;;;;43.35;27.52;;;;;;;;;;7368700;19;20709;-80
2022/12/15 04:18:18;;;;;;;46.10;29.75;;;;;;;;;;7370376;19;20033;-82
2022/12/15 04:20:43;;;;;;;48.90;30.80;;;;;;;;;;7366068;19;20809;-83
2022/12/15 04:23:08;;;;;;;50.40;29.10;;;;;;;;;;7366426;19;20006;-82
2022/12/15 05:34:03;;;;;;;;;;;;;;;;;;7361098;19;20011;-85
2022/12/15 05:36:28;;;;;;;;;;;;;;;;;;7362625;19;19923;-82
2022/12/15 05:38:53;;;;;;;;;;;;;;;;;;7360707;19;19919;-85
2022/12/15 05:41:19;;;;;;;;;;;;;;;;;;7367827;19;19922;-81
2022/12/15 05:43:44;;;;;;;;;;;;;;;;;;7359692;19;19925;-79
2022/12/15 05:46:09;;;;;;;;;;;;;;;;;;7373465;19;19926;-79
2022/12/15 05:48:34;;;;;;;;;;;;;;;;;;7359000;19;20430;-82
2022/12/15 05:50:59;;;;;;;;;;;;;;;;;;7371014;19;19915;-81
2022/12/15 05:53:24;;;;;;;;;;;;;;;;;;7367515;19;20026;-84
2022/12/15 05:55:49;;;;;;;;;;;;;;;;;;7361479;19;19933;-80
2022/12/15 05:58:14;;;;;;;;;;;;;;;;;;7378360;19;19930;-80
2022/12/15 06:00:39;;;;;;;;;;;;;;;;;;7370629;19;19911;-81
2022/12/15 06:03:05;;;;;;;;;;;;;;;;;;7369522;19;19933;-79
2022/12/15 06:05:30;;;;;;;;;;;;;;;;;;7372245;19;19937;-85
2022/12/15 06:07:55;;;;;;;;;;;;;;;;;;7375767;19;19923;-82
2022/12/15 06:10:20;;;;;;;;;;;;;;;;;;7360299;19;19919;-80
2022/12/15 06:12:45;;;;;;;;;;;;;;;;;;7366437;19;19941;-82
2022/12/15 06:15:11;;;;;;;;;;;;;;;;;;7375638;19;19925;-81
2022/12/15 06:17:36;;;;;;;;;;;;;;;;;;7372513;19;20221;-85
2022/12/15 06:20:01;;;;;;;;;;;;;;;;;;7384202;19;19915;-84
2022/12/15 06:22:26;;;;;;;;;;;;;;;;;;7377092;19;19936;-82
2022/12/15 06:24:51;;;;;;;;;;;;;;;;;;7362290;19;19915;-80
2022/12/15 06:27:16;;;;;;;;;;;;;;;;;;7370728;19;19949;-80
2022/12/15 06:29:41;;;;;;;;;;;;;;;;;;7367151;19;19929;-81
2022/12/15 06:32:06;;;;;;;;;;;;;;;;;;7323093;19;20226;-78
2022/12/15 06:34:31;;;;;;;;;;;;;;;;;;7348307;19;19919;-79
2022/12/15 06:36:56;;;;;;;;;;;;;;;;;;7359941;19;19990;-79
2022/12/15 06:39:22;;;;;;;;;;;;;;;;;;7364992;19;19932;-80
2022/12/15 06:41:47;;;;;;;;;;;;;;;;;;7360206;19;19982;-79
2022/12/15 06:44:12;;;;;;;;;;;;;;;;;;7362265;19;19918;-77
2022/12/15 06:46:37;;;;;;;;;;;;;;;;;;7356022;19;19942;-77
2022/12/15 06:49:02;;;;;;;;;;;;;;;;;;7365254;19;19923;-79
2022/12/15 06:51:27;;;;;;;;;;;;;;;;;;7370230;19;19922;-79
2022/12/15 06:53:54;;;;;;;;;;;;;;;;;;7366970;19;19978;-79
2022/12/15 06:56:19;;;;;;;;;;;;;;;;;;7372239;19;19922;-79
2022/12/15 06:58:44;;;;;;;;;;;;;;;;;;7368756;19;19925;-81
2022/12/15 07:01:09;;;;;;;;;;;;;;;;;;7354185;19;20308;-78
2022/12/15 07:03:34;;;;;;;;;;;;;;;;;;7365208;19;20239;-81
2022/12/15 07:06:00;;;;;;;;;;;;;;;;;;7355721;19;19921;-81
2022/12/15 07:08:25;;;;;;;;;;;;;;;;;;7348055;19;19941;-79
2022/12/15 07:10:50;;;;;;;;;;;;;;;;;;7351960;19;19946;-80
2022/12/15 07:13:15;;;;;;;;;;;;;;;;;;7365184;19;19914;-83
2022/12/15 07:15:41;;;;;;;;;;;;;;;;;;7364496;19;19935;-80
2022/12/15 07:18:06;;;;;;;;;;;;;;;;;;7369184;19;19995;-80
2022/12/15 07:20:31;;;;;;;;;;;;;;;;;;7366231;19;19929;-82
2022/12/15 07:22:56;;;;;;;;;;;;;;;;;;7362362;19;20042;-82
2022/12/15 07:25:22;;;;;;;;;;;;;;;;;;7365150;19;19918;-82
2022/12/15 07:27:47;;;;;;;;;;;;;;;;;;7367777;19;19931;-82
2022/12/15 07:30:12;;;;;;;;;;;;;;;;;;7365336;19;20296;-82
2022/12/15 07:32:37;;;;;;;;;;;;;;;;;;7363956;19;19969;-82
2022/12/15 07:35:04;;;;;;;;;;;;;;;;;;7372168;19;19971;-79
2022/12/15 07:37:29;;;;;;;;;;;;;;;;;;7365403;19;19926;-80
2022/12/15 07:39:54;;;;;;;;;;;;;;;;;;7357054;19;19915;-82
2022/12/15 07:42:19;;;;;;;;;;;;;;;;;;7362410;19;19994;-81
2022/12/15 07:44:45;;;;;;;;;;;;;;;;;;7366645;19;19919;-82
2022/12/15 07:47:10;;;;;;;;;;;;;;;;;;7367076;19;19923;-82
2022/12/15 07:49:35;;;;;;;;;;;;;;;;;;7360715;19;19942;-80
2022/12/15 07:52:00;;;;;;;;;;;;;;;;;;7370950;19;19963;-81
2022/12/15 07:54:25;;;;;;;;;;;;;;;;;;7366388;19;19985;-83
2022/12/15 07:56:51;;;;;;;;;;;;;;;;;;7368937;19;20361;-82
2022/12/15 07:59:16;;;;;;;;;;;;;;;;;;7371481;19;19919;-83
2022/12/15 08:01:41;;;;;;;;;;;;;;;;;;7371508;19;20143;-83
2022/12/15 08:04:06;;;;;;;;;;;;;;;;;;7367317;19;19919;-82
2022/12/15 08:06:31;;;;;;;;;;;;;;;;;;7351362;19;19925;-81
2022/12/15 08:08:57;;;;;;;;;;;;;;;;;;7355036;19;19925;-81
2022/12/15 08:11:23;;;;;;;;;;;;;;;;;;7369342;19;19993;-82
2022/12/15 08:13:49;;;;;;;;;;;;;;;;;;7363543;19;19927;-81
2022/12/15 08:16:14;;;;;;;;;;;;;;;;;;7362193;19;19931;-79
2022/12/15 08:18:39;;;;;;;;;;;;;;;;;;7364049;19;19968;-84
2022/12/15 08:21:04;;;;;;;;;;;;;;;;;;7373374;19;20431;-85
2022/12/15 08:23:29;;;;;;;;;;;;;;;;;;7373543;19;20010;-85
2022/12/15 08:25:54;;;;;;;;;;;;;;;;;;7371073;19;19933;-85
2022/12/15 08:28:19;;;;;;;;;;;;;;;;;;7370710;19;20052;-83
2022/12/15 08:30:44;;;;;;;;;;;;;;;;;;7372673;19;20040;-84
2022/12/15 08:33:10;;;;;;;;;;;;;;;;;;7372516;19;20018;-85
2022/12/15 08:35:35;;;;;;;;;;;;;;;;;;7373160;19;20034;-83
2022/12/15 08:38:00;;;;;;;;;;;;;;;;;;7367923;19;19922;-83
2022/12/15 08:40:25;;;;;;;;;;;;;;;;;;7366359;19;20011;-84
2022/12/15 08:42:50;;;;;;;;;;;;;;;;;;7367898;19;19918;-85
2022/12/15 08:45:16;;;;;;;;;;;;;;;;;;7371170;19;19930;-84
2022/12/15 08:47:41;;;;;;;;;;;;;;;;;;7371147;19;19928;-85
2022/12/15 08:50:06;;;;;;;;;;;;;;;;;;7371673;19;19933;-84
2022/12/15 08:52:31;;;;;;;;;;;;;;;;;;7371324;19;19982;-84
2022/12/15 08:54:56;;;;;;;;;;;;;;;;;;7369974;19;20406;-83
2022/12/15 08:57:21;;;;;;;;;;;;;;;;;;7372550;19;20771;-83
2022/12/15 08:59:46;;;;;;;;;;;;;;;;;;7370375;19;19915;-85
2022/12/15 09:02:11;;;;;;;;;;;;;;;;;;7371716;19;19926;-84
2022/12/15 09:04:37;;;;;;;;;;;;;;;;;;7373420;19;19923;-84
2022/12/15 09:07:02;;;;;;;;;;;;;;;;;;7370478;19;20029;-84
2022/12/15 09:09:27;;;;;;;;;;;;;;;;;;7370496;19;19919;-84
2022/12/15 09:11:52;;;;;;;;;;;;;;;;;;7367777;19;19928;-84
2022/12/15 09:14:17;;;;;;;;;;;;;;;;;;7373097;19;19937;-84
2022/12/15 09:16:42;;;;;;;;;;;;;;;;;;7370679;19;19950;-84
2022/12/15 09:19:07;;;;;;;;;;;;;;;;;;7370275;19;19923;-84
2022/12/15 09:21:32;;;;;;;;;;;;;;;;;;7380079;19;19915;-83
2022/12/15 09:23:59;;;;;;;;;;;;;;;;;;7371841;19;19918;-84
2022/12/15 09:26:24;;;;;;;;;;;;;;;;;;7382002;19;20014;-81
2022/12/15 09:28:49;;;;;;;;;;;;;;;;;;7381875;19;19988;-80
2022/12/15 09:31:14;;;;;;;;;;;;;;;;;;7381218;19;19926;-82
2022/12/15 09:33:39;;;;;;;;;;;;;;;;;;7375990;19;19926;-81
2022/12/15 09:36:04;;;;;;;;;;;;;;;;;;7376682;19;19926;-82
2022/12/15 09:38:30;;;;;;;;;;;;;;;;;;7377447;19;19919;-81
2022/12/15 09:40:55;;;;;;;;;;;;;;;;;;7372350;19;19971;-82
2022/12/15 09:43:20;;;;;;;;;;;;;;;;;;7376463;19;19935;-82
2022/12/15 09:45:45;;;;;;;;;;;;;;;;;;7374612;19;19994;-82
2022/12/15 09:48:10;;;;;;;;;;;;;;;;;;7373642;19;19923;-82
2022/12/15 09:50:35;;;;;;;;;;;;;;;;;;7373463;19;20367;-82
2022/12/15 09:53:01;;;;;;;;;;;;;;;;;;7367719;19;19919;-82
2022/12/15 09:55:26;;;;;;;;;;;;;;;;;;7370316;19;19927;-82
2022/12/15 09:57:51;;;;;;;;;;;;;;;;;;7371633;19;19914;-82
2022/12/15 10:00:20;;;;;;;;;;;;;;;;;;7372431;19;20347;-82
2022/12/15 10:02:45;;;;;;;;;;;;;;;;;;7369417;19;19959;-82
2022/12/15 10:05:10;;;;;;;;;;;;;;;;;;7368922;19;20361;-82
2022/12/15 10:07:35;;;;;;;;;;;;;;;;;;7370514;19;19930;-82
2022/12/15 10:10:00;;;;;;;;;;;;;;;;;;7369615;19;19923;-82
2022/12/15 10:12:25;;;;;;;;;;;;;;;;;;7369664;19;19926;-82
2022/12/15 10:14:50;;;;;;;;;;;;;;;;;;7368206;19;19915;-82
2022/12/15 10:17:15;;;;;;;;;;;;;;;;;;7372155;19;19918;-82
2022/12/15 10:19:40;;;;;;;;;;;;;;;;;;7369172;19;20316;-82
2022/12/15 10:22:05;;;;;;;;;;;;;;;;;;7366249;19;19911;-82
2022/12/15 10:24:32;;;;;;;;;;;;;;;;;;7369054;19;19991;-81
2022/12/15 10:26:57;;;;;;;;;;;;;;;;;;7369198;19;20009;-82
2022/12/15 10:29:22;;;;;;;;;;;;;;;;;;7372872;19;19919;-82
2022/12/15 10:31:50;;;;;;;;;;;;;;;;;;7371992;19;19911;-82
2022/12/15 10:34:16;;;;;;;;;;;;;;;;;;7375286;19;19919;-82
2022/12/15 10:36:42;;;;;;;;;;;;;;;;;;7374864;19;20051;-81
2022/12/15 10:39:07;;;;;;;;;;;;;;;;;;7371303;19;20288;-82
2022/12/15 10:41:33;;;;;;;;;;;;;;;;;;7377512;19;19919;-82
2022/12/15 10:44:01;;;;;;;;;;;;;;;;;;7370039;19;20414;-83
2022/12/15 10:46:29;;;;;;;;;;;;;;;;;;7377667;19;19963;-82
2022/12/15 10:48:55;;;;;;;;;;;;;;;;;;7375089;19;19915;-83
2022/12/15 10:51:21;;;;;;;;;;;;;;;;;;7373194;19;20319;-81
2022/12/15 10:53:48;;;;;;;;;;;;;;;;;;7370557;19;20311;-82
2022/12/15 10:56:14;;;;;;;;;;;;;;;;;;7376008;19;20026;-82
2022/12/15 10:58:40;;;;;;;;;;;;;;;;;;7376485;19;19930;-82
2022/12/15 11:01:05;;;;;;;;;;;;;;;;;;7373926;19;19922;-82
2022/12/15 11:03:40;;;;;;;;;;;;;;;;;;7376018;19;20350;-82
2022/12/15 11:06:08;;;;;;;;;;;;;;;;;;7373417;19;19960;-83
2022/12/15 11:08:35;;;;;;;;;;;;;;;;;;7375477;19;19970;-82
2022/12/15 11:13:44;;;;;;;;;;;;;;;;;;7373437;19;20010;-82
2022/12/15 11:16:10;;;;;;;;;;;;;;;;;;7374362;19;20362;-82
2022/12/15 11:18:36;;;;;;;;;;;;;;;;;;7370390;19;19919;-82
2022/12/15 11:21:01;;;;;;;;;;;;;;;;;;7372332;19;19926;-82
2022/12/15 11:23:26;;;;;;;;;;;;;;;;;;7374240;19;19934;-83
2022/12/15 11:25:51;;;;;;;;;;;;;;;;;;7369680;19;19932;-81
2022/12/15 11:28:19;;;;;;;;;;;;;;;;;;7377590;19;20268;-82
2022/12/15 11:30:44;;;;;;;;;;;;;;;;;;7373474;19;19948;-81
2022/12/15 11:33:09;;;;;;;;;;;;;;;;;;7370957;19;19915;-81
2022/12/15 11:35:34;;;;;;;;;;;;;;;;;;7373526;19;19986;-82
2022/12/15 11:38:00;;;;;;;;;;;;;;;;;;7373793;19;19926;-82
2022/12/15 11:40:25;;;;;;;;;;;;;;;;;;7361305;19;19949;-82
2022/12/15 11:42:50;;;;;;;;;;;;;;;;;;7366970;19;19930;-81
2022/12/15 11:45:15;;;;;;;;;;;;;;;;;;7376291;19;19926;-81
2022/12/15 11:47:43;;;;;;;;;;;;;;;;;;7374809;19;20414;-81
2022/12/15 11:50:08;;;;;;;;;;;;;;;;;;7372746;19;20411;-81
2022/12/15 11:52:33;;;;;;;;;;;;;;;;;;7369251;19;20492;-81
2022/12/15 11:54:58;;;;;;;;;;;;;;;;;;7372388;19;19915;-81
2022/12/15 11:57:24;;;;;;;;;;;;;;;;;;7372208;19;19930;-81
2022/12/15 11:59:49;;;;;;;;;;;;;;;;;;7372699;19;20134;-81
2022/12/15 12:02:14;;;;;;;;;;;;;;;;;;7373846;19;20316;-81
2022/12/15 12:04:39;;;;;;;;;;;;;;;;;;7370372;19;19922;-82
2022/12/15 12:07:04;;;;;;;;;;;;;;;;;;7361733;19;20273;-76
2022/12/15 12:09:29;;;;;;;;;;;;;;;;;;7367327;19;20328;-76
2022/12/15 12:11:54;;;;;;;;;;;;;;;;;;7362338;19;19930;-76
2022/12/15 12:14:19;;;;;;;;;;;;;;;;;;7366372;19;19961;-76
2022/12/15 12:16:44;;;;;;;;;;;;;;;;;;7323618;19;19922;-76
2022/12/15 12:19:10;;;;;;;;;;;;;;;;;;7364928;19;19924;-76
2022/12/15 12:21:35;;;;;;;;;;;;;;;;;;7357937;19;20002;-76
2022/12/15 12:24:00;;;;;;;;;;;;;;;;;;7358600;19;20307;-76
2022/12/15 12:26:25;;;;;;;;;;;;;;;;;;7365225;19;20236;-75
2022/12/15 12:28:50;;;;;;;;;;;;;;;;;;7366376;19;20466;-75
2022/12/15 12:31:15;;;;;;;;;;;;;;;;;;7365237;19;20300;-75
2022/12/15 12:33:40;;;;;;;;;;;;;;;;;;7361490;19;20304;-76
2022/12/15 12:36:05;;;;;;;;;;;;;;;;;;7358470;19;19926;-75
2022/12/15 12:38:31;;;;;;;;;;;;;;;;;;7367270;19;19930;-75
2022/12/15 12:40:56;;;;;;;;;;;;;;;;;;7355855;19;19930;-75
2022/12/15 12:43:21;;;;;;;;;;;;;;;;;;7367244;19;19963;-75
2022/12/15 12:45:46;;;;;;;;;;;;;;;;;;7365056;19;19927;-76
2022/12/15 12:48:11;;;;;;;;;;;;;;;;;;7361858;19;20495;-76
2022/12/15 12:50:36;;;;;;;;;;;;;;;;;;7368478;19;19910;-75
2022/12/15 12:53:01;;;;;;;;;;;;;;;;;;7363292;19;19919;-76
2022/12/15 12:55:27;;;;;;;;;;;;;;;;;;7357878;19;20001;-76
2022/12/15 12:57:52;;;;;;;;;;;;;;;;;;7362027;19;20138;-76
2022/12/15 13:00:17;;;;;;;;;;;;;;;;;;7365776;19;19914;-76
2022/12/15 13:02:42;;;;;;;;;;;;;;;;;;7365260;19;19915;-76
2022/12/15 13:05:07;;;;;;;;;;;;;;;;;;7361870;19;20256;-76
2022/12/15 13:07:33;;;;;;;;;;;;;;;;;;7359352;19;19933;-75
2022/12/15 13:09:58;;;;;;;;;;;;;;;;;;7358996;19;19990;-77
2022/12/15 13:12:25;;;;;;;;;;;;;;;;;;7366007;19;19922;-76
2022/12/15 13:14:50;;;;;;;;;;;;;;;;;;7364283;19;20315;-76
2022/12/15 13:17:15;;;;;;;;;;;;;;;;;;7363651;19;20337;-75
2022/12/15 13:19:40;;;;;;;;;;;;;;;;;;7363684;19;19922;-76
2022/12/15 13:22:06;;;;;;;;;;;;;;;;;;7359216;19;19963;-76
2022/12/15 13:24:34;;;;;;;;;;;;;;;;;;7359568;19;19933;-76
2022/12/15 13:26:59;;;;;;;;;;;;;;;;;;7349096;19;20004;-76
2022/12/15 13:29:24;;;;;;;;;;;;;;;;;;7363701;19;19911;-76
2022/12/15 13:31:50;;;;;;;;;;;;;;;;;;7362538;19;19937;-76
2022/12/15 13:34:15;;;;;;;;;;;;;;;;;;7364233;19;20346;-76
2022/12/15 13:36:40;;;;;;;;;;;;;;;;;;7361922;19;19938;-76
2022/12/15 13:39:05;;;;;;;;;;;;;;;;;;7356442;19;20390;-76
2022/12/15 13:41:32;;;;;;;;;;;;;;;;;;7367079;19;19922;-76
2022/12/15 13:43:57;;;;;;;;;;;;;;;;;;7364907;19;19997;-76
2022/12/15 13:46:22;;;;;;;;;;;;;;;;;;7364742;19;20001;-76
2022/12/15 13:48:47;;;;;;;;;;;;;;;;;;7362273;19;19934;-76
2022/12/15 13:51:12;;;;;;;;;;;;;;;;;;7361219;19;19918;-76
2022/12/15 13:53:37;;;;;;;;;;;;;;;;;;7364864;19;20007;-76
2022/12/15 13:56:02;;;;;;;;;;;;;;;;;;7356663;19;20361;-76
2022/12/15 13:58:27;;;;;;;;;;;;;;;;;;7364114;19;20278;-76
2022/12/15 14:00:52;;;;;;;;;;;;;;;;;;7365467;19;19936;-76
2022/12/15 14:03:18;;;;;;;;;;;;;;;;;;7365812;19;19936;-76
2022/12/15 14:05:43;;;;;;;;;;;;;;;;;;7369685;19;19914;-76
2022/12/15 14:08:09;;;;;;;;;;;;;;;;;;7352711;19;20009;-76
2022/12/15 14:10:34;;;;;;;;;;;;;;;;;;7368804;19;20238;-76
2022/12/15 14:12:59;;;;;;;;;;;;;;;;;;7370843;19;20227;-76
2022/12/15 14:15:24;;;;;;;;;;;;;;;;;;7371932;19;19918;-76
2022/12/15 14:17:50;;;;;;;;;;;;;;;;;;7351845;19;19922;-76
2022/12/15 14:20:15;;;;;;;;;;;;;;;;;;7350744;19;19925;-75
2022/12/15 14:22:41;;;;;;;;;;;;;;;;;;7357401;19;19932;-75
2022/12/15 14:25:06;;;;;;;;;;;;;;;;;;7357588;19;20395;-75
2022/12/15 14:27:31;;;;;;;;;;;;;;;;;;7370094;19;19928;-76
2022/12/15 14:29:56;;;;;;;;;;;;;;;;;;7371037;19;19919;-76
2022/12/15 14:32:21;;;;;;;;;;;;;;;;;;7363679;19;19919;-76
2022/12/15 14:34:49;;;;;;;;;;;;;;;;;;7371013;19;19914;-76
2022/12/15 14:37:14;;;;;;;;;;;;;;;;;;7367680;19;19930;-75
2022/12/15 14:39:40;;;;;;;;;;;;;;;;;;7358456;19;19922;-75
2022/12/15 14:42:06;;;;;;;;;;;;;;;;;;7363839;19;20377;-76
2022/12/15 14:44:31;;;;;;;;;;;;;;;;;;7366859;19;19922;-76
2022/12/15 14:46:56;;;;;;;;;;;;;;;;;;7356623;19;19930;-76
2022/12/15 14:49:21;;;;;;;;;;;;;;;;;;7363318;19;20082;-76
2022/12/15 14:51:46;;;;;;;;;;;;;;;;;;7370311;19;19943;-76
2022/12/15 14:54:12;;;;;;;;;;;;;;;;;;7349062;19;20785;-76
2022/12/15 14:56:37;;;;;;;;;;;;;;;;;;7365289;19;19926;-78
2022/12/15 14:59:05;;;;;;;;;;;;;;;;;;7370648;19;19938;-78
2022/12/15 15:01:30;;;;;;;;;;;;;;;;;;7361005;19;19942;-78
2022/12/15 15:03:55;;;;;;;;;;;;;;;;;;7369510;19;19915;-77
2022/12/15 15:06:20;;;;;;;;;;;;;;;;;;7373435;19;19972;-78
2022/12/15 15:08:45;;;;;;;;;;;;;;;;;;7372433;19;19923;-78
2022/12/15 15:11:10;;;;;;;;;;;;;;;;;;7367423;19;19978;-78
2022/12/15 15:13:35;;;;;;;;;;;;;;;;;;7371034;19;20199;-78
2022/12/15 15:16:00;;;;;;;;;;;;;;;;;;7370601;19;19926;-77
2022/12/15 15:18:26;;;;;;;;;;;;;;;;;;7372021;19;19919;-78
2022/12/15 15:20:51;;;;;;;;;;;;;;;;;;7374318;19;19930;-80
2022/12/15 15:23:16;;;;;;;;;;;;;;;;;;7368584;19;20014;-78
2022/12/15 15:25:41;;;;;;;;;;;;;;;;;;7370704;19;19926;-78
2022/12/15 15:28:06;;;;;;;;;;;;;;;;;;7358165;19;19922;-78
2022/12/15 15:30:31;;;;;;;;;;;;;;;;;;7355575;19;20125;-78
2022/12/15 15:32:56;;;;;;;;;;;;;;;;;;7362148;19;20231;-78
2022/12/15 15:35:22;;;;;;;;;;;;;;;;;;7371035;19;19919;-79
2022/12/15 15:37:47;;;;;;;;;;;;;;;;;;7363449;19;19911;-78
2022/12/15 15:40:12;;;;;;;;;;;;;;;;;;7366032;19;20276;-78
2022/12/15 15:42:37;;;;;;;;;;;;;;;;;;7363894;19;19974;-79
2022/12/15 15:45:02;;;;;;;;;;;;;;;;;;7361311;19;19918;-78
2022/12/15 15:47:27;;;;;;;;;;;;;;;;;;7373726;19;19923;-78
2022/12/15 15:49:53;;;;;;;;;;;;;;;;;;7371256;19;20248;-78
2022/12/15 15:52:18;;;;;;;;;;;;;;;;;;7365712;19;19915;-78
2022/12/15 15:54:43;;;;;;;;;;;;;;;;;;7349194;19;19942;-79
2022/12/15 15:57:09;;;;;;;;;;;;;;;;;;7368736;19;19939;-78
2022/12/15 15:59:35;;;;;;;;;;;;;;;;;;7373569;19;20014;-78
2022/12/15 16:02:01;;;;;;;;;;;;;;;;;;7367540;19;20023;-78
2022/12/15 16:04:26;;;;;;;;;;;;;;;;;;7370983;19;19986;-79
2022/12/15 16:06:51;;;;;;;;;;;;;;;;;;7368039;19;20033;-79
2022/12/15 16:09:16;;;;;;;;;;;;;;;;;;7355530;19;20028;-77
2022/12/15 16:11:41;;;;;;;;;;;;;;;;;;7364768;19;20014;-77
2022/12/15 16:14:06;;;;;;;;;;;;;;;;;;7368477;19;19918;-77
2022/12/15 16:16:32;;;;;;;;;;;;;;;;;;7352317;19;20262;-77
2022/12/15 16:18:57;;;;;;;;;;;;;;;;;;7362486;19;20302;-78
2022/12/15 16:21:22;;;;;;;;;;;;;;;;;;7356087;19;20268;-78
2022/12/15 16:23:47;;;;;;;;;;;;;;;;;;7363398;19;19911;-78
2022/12/15 16:26:12;;;;;;;;;;;;;;;;;;7359184;19;20545;-78
2022/12/15 16:28:37;;;;;;;;;;;;;;;;;;7357233;19;20215;-78
2022/12/15 16:31:02;;;;;;;;;;;;;;;;;;7361392;19;20034;-78
2022/12/15 16:33:27;;;;;;;;;;;;;;;;;;7371179;19;19910;-79
2022/12/15 16:35:52;;;;;;;;;;;;;;;;;;7369003;19;19919;-78
2022/12/15 16:38:18;;;;;;;;;;;;;;;;;;7368772;19;19945;-79
2022/12/15 16:40:43;;;;;;;;;;;;;;;;;;7362704;19;19923;-79
2022/12/15 16:43:08;;;;;;;;;;;;;;;;;;7365431;19;20288;-79
2022/12/15 16:45:33;;;;;;;;;;;;;;;;;;7367460;19;19922;-79
2022/12/15 16:47:59;;;;;;;;;;;;;;;;;;7370692;19;19919;-79
2022/12/15 16:50:24;;;;;;;;;;;;;;;;;;7370718;19;19922;-79
2022/12/15 16:52:49;;;;;;;;;;;;;;;;;;7370695;19;20339;-78
2022/12/15 16:55:14;;;;;;;;;;;;;;;;;;7360552;19;19921;-79
2022/12/15 16:57:39;;;;;;;;;;;;;;;;;;7369248;19;19926;-79
2022/12/15 17:00:06;;;;;;;;;;;;;;;;;;7364132;19;20245;-78
2022/12/15 17:02:32;;;;;;;;;;;;;;;;;;7367714;19;20338;-79
2022/12/15 17:04:57;;;;;;;;;;;;;;;;;;7370511;19;20432;-78
2022/12/15 17:07:22;;;;;;;;;;;;;;;;;;7369422;19;20317;-78
2022/12/15 17:09:47;;;;;;;;;;;;;;;;;;7367427;19;20019;-78
2022/12/15 17:12:13;;;;;;;;;;;;;;;;;;7365617;19;20075;-78
2022/12/15 17:14:38;;;;;;;;;;;;;;;;;;7371612;19;19933;-78
2022/12/15 17:17:03;;;;;;;;;;;;;;;;;;7367811;19;19930;-78
2022/12/15 17:19:28;;;;;;;;;;;;;;;;;;7368506;19;19983;-79
2022/12/15 17:21:53;;;;;;;;;;;;;;;;;;7370589;19;19978;-79
2022/12/15 17:24:18;;;;;;;;;;;;;;;;;;7364211;19;19974;-79
2022/12/15 17:26:44;;;;;;;;;;;;;;;;;;7367500;19;20199;-77
2022/12/15 17:29:09;;;;;;;;;;;;;;;;;;7368927;19;20191;-78
2022/12/15 17:31:34;;;;;;;;;;;;;;;;;;7366960;19;19922;-78
2022/12/15 17:34:01;;;;;;;;;;;;;;;;;;7364928;19;20296;-78
2022/12/15 17:36:26;;;;;;;;;;;;;;;;;;7370021;19;20284;-79
2022/12/15 17:38:51;;;;;;;;;;;;;;;;;;7370231;19;19911;-78
2022/12/15 17:41:16;;;;;;;;;;;;;;;;;;7376235;19;19929;-79
2022/12/15 17:43:41;;;;;;;;;;;;;;;;;;7378304;19;20030;-79
2022/12/15 17:46:06;;;;;;;;;;;;;;;;;;7373394;19;19911;-78
2022/12/15 17:48:31;;;;;;;;;;;;;;;;;;7375096;19;20224;-79
2022/12/15 17:50:56;;;;;;;;;;;;;;;;;;7365021;19;20224;-79
2022/12/15 17:53:22;;;;;;;;;;;;;;;;;;7362727;19;19914;-79
2022/12/15 17:55:47;;;;;;;;;;;;;;;;;;7370301;19;19919;-80
2022/12/15 17:58:12;;;;;;;;;;;;;;;;;;7372383;19;19989;-80
2022/12/15 18:00:37;;;;;;;;;;;;;;;;;;7370277;19;19914;-80
2022/12/15 18:03:03;;;;;;;;;;;;;;;;;;7367589;19;20070;-79
2022/12/15 18:05:28;;;;;;;;;;;;;;;;;;7372387;19;20270;-79
2022/12/15 18:07:53;;;;;;;;;;;;;;;;;;7373278;19;20023;-79
2022/12/15 18:10:18;;;;;;;;;;;;;;;;;;7366741;19;20289;-79
2022/12/15 18:12:44;;;;;;;;;;;;;;;;;;7374319;19;19926;-79
2022/12/15 18:15:09;;;;;;;;;;;;;;;;;;7372004;19;19922;-78
2022/12/15 18:17:34;;;;;;;;;;;;;;;;;;7375714;19;19994;-80
2022/12/15 18:19:59;;;;;;;;;;;;;;;;;;7370473;19;19941;-79
2022/12/15 18:22:24;;;;;;;;;;;;;;;;;;7370981;19;20340;-80
2022/12/15 18:24:49;;;;;;;;;;;;;;;;;;7370227;19;19915;-80
2022/12/15 18:27:14;;;;;;;;;;;;;;;;;;7371179;19;19915;-79
2022/12/15 18:29:40;;;;;;;;;;;;;;;;;;7371227;19;20341;-80